Time;durP1;ratioP1;P1;durP2;ratioP2;P2;SDS_P1;SDS_P2;PMS_P1;PMS_P2;Temp;Humidity;BMP_temperature;BMP_pressure;BME280_temperature;BME280_humidity;BME280_pressure;Samples;Min_cycle;Max_cycle;Signal;HPM_P1;HPM_P2
2022/09/15 00:00:15;;;;;;;1.00;0.60;;;16.20;50.10;;;;;;4895238;29;20209;-46
2022/09/15 00:02:45;;;;;;;2.10;0.63;;;16.20;50.10;;;;;;4895651;29;20264;-34
2022/09/15 00:05:17;;;;;;;1.63;0.75;;;16.20;50.10;;;;;;4894928;29;20547;-40
2022/09/15 00:07:49;;;;;;;0.90;0.60;;;16.30;50.20;;;;;;4895747;29;20220;-41
2022/09/15 00:10:20;;;;;;;1.52;0.63;;;16.30;50.20;;;;;;4888875;29;20229;-37
2022/09/15 00:12:51;;;;;;;0.90;0.57;;;16.40;50.20;;;;;;4886473;29;20257;-42
2022/09/15 00:15:21;;;;;;;1.75;0.65;;;16.40;50.20;;;;;;4895334;29;20208;-35
2022/09/15 00:17:53;;;;;;;2.17;0.70;;;16.50;50.20;;;;;;4894871;29;20221;-35
2022/09/15 00:20:24;;;;;;;4.53;0.60;;;16.50;50.20;;;;;;4895164;29;20204;-34
2022/09/15 00:22:57;;;;;;;0.65;0.50;;;16.50;50.20;;;;;;4895137;29;20678;-35
2022/09/15 00:25:27;;;;;;;1.40;0.70;;;16.60;50.40;;;;;;4895074;29;20216;-35
2022/09/15 00:27:58;;;;;;;1.70;0.68;;;16.60;50.50;;;;;;4895672;29;20213;-38
2022/09/15 00:30:28;;;;;;;2.03;0.80;;;16.70;50.90;;;;;;4895690;29;20309;-37
2022/09/15 00:32:59;;;;;;;1.38;0.60;;;16.70;50.80;;;;;;4888669;29;20254;-36
2022/09/15 00:35:30;;;;;;;1.00;0.70;;;16.80;50.70;;;;;;4876951;29;20287;-35
2022/09/15 00:38:02;;;;;;;2.30;0.70;;;16.80;50.70;;;;;;4886116;29;20221;-40
2022/09/15 00:40:33;;;;;;;1.33;0.80;;;16.90;50.70;;;;;;4887030;29;20670;-38
2022/09/15 00:43:03;;;;;;;0.90;0.50;;;16.90;50.60;;;;;;4886256;29;20280;-35
2022/09/15 00:45:35;;;;;;;2.35;0.73;;;16.90;50.50;;;;;;4895107;29;20574;-35
2022/09/15 00:48:07;;;;;;;2.65;0.80;;;17.00;50.50;;;;;;4895187;29;20219;-35
2022/09/15 00:50:41;;;;;;;0.70;0.50;;;17.00;50.50;;;;;;4880529;29;20732;-34
2022/09/15 00:53:15;;;;;;;1.60;0.50;;;17.10;50.50;;;;;;4885927;29;20201;-35
2022/09/15 00:55:49;;;;;;;0.70;0.50;;;17.10;50.50;;;;;;4895406;29;20248;-35
2022/09/15 00:58:24;;;;;;;0.88;0.50;;;17.10;50.40;;;;;;4895244;29;20249;-35
2022/09/15 01:00:58;;;;;;;1.10;0.60;;;17.20;50.50;;;;;;4895382;29;20260;-44
2022/09/15 01:03:31;;;;;;;1.27;0.95;;;17.20;50.40;;;;;;4894549;29;20196;-46
2022/09/15 01:06:05;;;;;;;1.52;0.70;;;17.30;50.50;;;;;;4894514;29;20241;-48
2022/09/15 01:08:41;;;;;;;1.60;0.73;;;17.30;50.50;;;;;;4894608;29;20196;-40
2022/09/15 01:11:13;;;;;;;1.83;0.80;;;17.40;50.60;;;;;;4882279;29;20292;-35
2022/09/15 01:13:44;;;;;;;0.90;0.80;;;17.40;50.60;;;;;;4889758;29;20201;-36
2022/09/15 01:16:23;;;;;;;1.25;0.60;;;17.50;50.60;;;;;;4895674;29;20212;-41
2022/09/15 01:19:02;;;;;;;1.50;0.70;;;17.50;50.60;;;;;;4894959;29;20906;-43
2022/09/15 01:21:41;;;;;;;0.82;0.70;;;17.60;50.60;;;;;;4895373;29;20204;-41
2022/09/15 01:24:42;;;;;;;1.05;0.55;;;17.60;51.20;;;;;;4894582;29;20204;-42
2022/09/15 01:27:25;;;;;;;1.13;0.65;;;17.70;50.70;;;;;;4894410;29;20272;-38
2022/09/15 01:30:12;;;;;;;1.88;0.60;;;17.70;50.60;;;;;;4895244;29;20662;-35
2022/09/15 01:33:05;;;;;;;1.00;0.55;;;17.70;50.50;;;;;;4898644;29;20256;-37
2022/09/15 01:35:53;;;;;;;1.25;0.68;;;17.80;50.50;;;;;;4892101;29;20202;-46
2022/09/15 01:38:59;;;;;;;1.40;0.60;;;17.80;50.50;;;;;;4885514;29;20216;-40
2022/09/15 01:41:32;;;;;;;1.33;0.60;;;17.90;50.40;;;;;;4858264;29;20238;-35
2022/09/15 01:44:07;;;;;;;1.30;0.70;;;17.90;50.30;;;;;;4886418;29;20682;-39
2022/09/15 01:46:45;;;;;;;2.05;0.50;;;18.00;50.30;;;;;;4860835;29;20257;-41
2022/09/15 01:49:22;;;;;;;1.98;0.60;;;18.00;50.20;;;;;;4891274;29;20197;-48
2022/09/15 01:51:55;;;;;;;1.52;0.65;;;18.00;50.20;;;;;;4896168;29;20233;-35
2022/09/15 01:54:31;;;;;;;1.63;0.80;;;18.10;50.90;;;;;;4895057;29;20617;-45
2022/09/15 01:57:03;;;;;;;1.13;0.65;;;18.10;50.20;;;;;;4896624;29;20430;-42
2022/09/15 01:59:33;;;;;;;0.57;0.55;;;18.10;50.20;;;;;;4897885;29;20193;-36
2022/09/15 02:02:11;;;;;;;1.13;0.60;;;18.20;50.20;;;;;;4897361;29;20753;-40
2022/09/15 02:04:45;;;;;;;0.88;0.57;;;18.20;50.10;;;;;;4897672;29;20205;-45
2022/09/15 02:07:26;;;;;;;2.72;0.70;;;18.30;50.10;;;;;;4860245;29;20231;-38
2022/09/15 02:10:03;;;;;;;1.67;0.57;;;18.30;50.00;;;;;;4893966;29;20211;-44
2022/09/15 02:12:41;;;;;;;0.90;0.60;;;18.30;49.90;;;;;;4891937;29;20280;-39
2022/09/15 02:15:15;;;;;;;1.08;0.80;;;18.30;49.90;;;;;;4897307;29;20240;-37
2022/09/15 02:17:53;;;;;;;1.13;0.50;;;18.40;49.90;;;;;;4897401;29;20889;-40
2022/09/15 02:20:30;;;;;;;2.50;0.70;;;18.40;49.90;;;;;;4897275;29;20283;-35
2022/09/15 02:23:07;;;;;;;1.15;0.70;;;18.50;49.90;;;;;;4897667;29;20239;-34
2022/09/15 02:25:43;;;;;;;1.98;0.70;;;18.50;49.90;;;;;;4897511;29;20203;-36
2022/09/15 02:28:15;;;;;;;0.88;0.63;;;18.50;49.80;;;;;;4897277;29;20216;-37
2022/09/15 02:30:48;;;;;;;2.55;0.70;;;18.60;49.80;;;;;;4897144;29;20650;-36
2022/09/15 02:33:23;;;;;;;1.20;0.52;;;18.60;49.80;;;;;;4893085;29;20198;-40
2022/09/15 02:35:54;;;;;;;0.98;0.57;;;18.60;49.70;;;;;;4896515;29;20204;-35
2022/09/15 02:38:28;;;;;;;1.38;0.60;;;18.60;49.70;;;;;;4897137;29;20220;-40
2022/09/15 02:41:00;;;;;;;0.73;0.43;;;18.70;49.70;;;;;;4886276;29;20223;-35
2022/09/15 02:43:30;;;;;;;1.45;0.70;;;18.80;49.70;;;;;;4884302;29;20577;-36
2022/09/15 02:46:01;;;;;;;0.98;0.73;;;18.80;49.70;;;;;;4897076;29;20197;-41
2022/09/15 02:48:33;;;;;;;1.55;0.65;;;18.80;49.70;;;;;;4897207;29;20189;-36
2022/09/15 02:51:04;;;;;;;0.68;0.50;;;18.80;49.70;;;;;;4897671;29;20232;-37
2022/09/15 02:53:35;;;;;;;1.42;0.70;;;18.90;49.70;;;;;;4896375;29;20658;-38
2022/09/15 02:56:06;;;;;;;1.35;0.60;;;18.90;49.70;;;;;;4885245;29;20290;-38
2022/09/15 02:58:37;;;;;;;1.42;0.70;;;18.90;49.60;;;;;;4884172;29;20280;-40
2022/09/15 03:01:09;;;;;;;0.60;0.50;;;19.00;49.60;;;;;;4896877;29;20205;-35
2022/09/15 03:03:42;;;;;;;2.63;0.55;;;19.00;49.60;;;;;;4896551;29;20189;-35
2022/09/15 03:06:20;;;;;;;1.20;0.57;;;19.00;49.50;;;;;;4896648;29;20201;-39
2022/09/15 03:08:54;;;;;;;2.25;0.43;;;19.10;49.40;;;;;;4896841;29;20201;-36
2022/09/15 03:11:27;;;;;;;1.20;0.60;;;19.10;49.40;;;;;;4881131;29;20240;-35
2022/09/15 03:13:59;;;;;;;2.08;0.90;;;19.20;49.40;;;;;;4886976;29;20287;-37
2022/09/15 03:16:30;;;;;;;0.52;0.52;;;19.20;49.40;;;;;;4896784;29;20217;-36
2022/09/15 03:19:04;;;;;;;3.75;0.70;;;19.20;49.40;;;;;;4896115;29;20200;-35
2022/09/15 03:21:35;;;;;;;1.92;0.80;;;19.30;49.40;;;;;;4896654;29;20213;-36
2022/09/15 03:24:06;;;;;;;2.58;0.75;;;19.30;49.40;;;;;;4896545;29;20193;-35
2022/09/15 03:26:36;;;;;;;1.35;0.60;;;19.40;49.30;;;;;;4895583;29;20217;-35
2022/09/15 03:29:07;;;;;;;1.50;0.80;;;19.40;49.20;;;;;;4895689;29;20215;-35
2022/09/15 03:31:37;;;;;;;1.27;0.60;;;19.40;49.20;;;;;;4895359;29;20228;-35
2022/09/15 03:34:10;;;;;;;1.92;0.70;;;19.50;49.20;;;;;;4890092;29;20197;-40
2022/09/15 03:36:41;;;;;;;2.22;0.70;;;19.50;49.00;;;;;;4892494;29;20286;-35
2022/09/15 03:39:13;;;;;;;1.40;0.70;;;19.60;49.00;;;;;;4886543;29;20197;-37
2022/09/15 03:41:44;;;;;;;1.50;0.85;;;19.60;49.00;;;;;;4879285;29;20265;-38
2022/09/15 03:44:14;;;;;;;1.20;0.70;;;19.60;48.90;;;;;;4886020;29;20718;-35
2022/09/15 03:46:45;;;;;;;1.02;0.70;;;19.70;48.90;;;;;;4896065;29;20713;-39
2022/09/15 03:49:17;;;;;;;1.35;0.90;;;19.70;48.90;;;;;;4890749;29;20198;-35
2022/09/15 03:51:48;;;;;;;1.20;0.85;;;19.80;49.00;;;;;;4877629;29;20289;-39
2022/09/15 03:54:19;;;;;;;1.95;1.00;;;19.80;49.00;;;;;;4885935;29;20681;-35
2022/09/15 03:56:50;;;;;;;1.23;0.70;;;19.90;49.00;;;;;;4895741;29;20221;-41
2022/09/15 03:59:22;;;;;;;2.30;0.98;;;19.90;48.90;;;;;;4895300;29;20193;-36
2022/09/15 04:01:52;;;;;;;1.50;0.90;;;19.90;48.80;;;;;;4895908;29;20201;-38
2022/09/15 04:04:25;;;;;;;1.38;0.90;;;20.00;48.80;;;;;;4891759;29;20212;-39
2022/09/15 04:06:55;;;;;;;0.88;0.70;;;20.00;48.80;;;;;;4895637;29;20273;-39
2022/09/15 04:09:26;;;;;;;2.17;1.00;;;20.10;48.70;;;;;;4895959;29;20600;-38
2022/09/15 04:11:57;;;;;;;2.00;1.10;;;20.10;48.70;;;;;;4858635;29;20234;-43
2022/09/15 04:14:27;;;;;;;2.15;1.30;;;20.20;48.70;;;;;;4877223;29;20197;-36
2022/09/15 04:16:58;;;;;;;2.83;0.98;;;20.20;49.40;;;;;;4894926;29;20221;-38
2022/09/15 04:19:31;;;;;;;1.33;0.95;;;20.20;48.70;;;;;;4895577;29;20197;-35
2022/09/15 04:22:01;;;;;;;1.77;1.10;;;20.30;48.70;;;;;;4895906;29;20721;-36
2022/09/15 04:24:32;;;;;;;2.25;1.00;;;20.30;48.70;;;;;;4894882;29;20661;-38
2022/09/15 04:27:02;;;;;;;1.20;1.00;;;20.30;48.70;;;;;;4895972;29;20338;-43
2022/09/15 04:29:33;;;;;;;1.98;1.05;;;20.30;48.70;;;;;;4895385;29;20253;-42
2022/09/15 04:32:04;;;;;;;1.38;1.00;;;20.40;48.80;;;;;;4895424;29;20331;-39
2022/09/15 04:34:36;;;;;;;1.65;1.17;;;20.40;48.80;;;;;;4876798;29;20197;-40
2022/09/15 04:37:07;;;;;;;1.33;1.00;;;20.40;48.80;;;;;;4896085;29;20988;-48
2022/09/15 04:39:38;;;;;;;1.92;0.88;;;20.50;48.90;;;;;;4893682;29;20558;-41
2022/09/15 04:42:09;;;;;;;2.20;0.90;;;20.50;48.80;;;;;;4874449;29;20229;-38
2022/09/15 04:44:39;;;;;;;2.60;0.93;;;20.50;48.80;;;;;;4876657;29;20193;-36
2022/09/15 04:47:10;;;;;;;2.08;1.00;;;20.50;48.70;;;;;;4891506;29;20645;-40
2022/09/15 04:49:42;;;;;;;1.63;0.90;;;20.60;48.70;;;;;;4884959;29;20534;-42
2022/09/15 04:52:13;;;;;;;2.65;1.35;;;20.60;48.60;;;;;;4895131;29;20228;-45
2022/09/15 04:54:43;;;;;;;1.42;0.90;;;20.60;48.60;;;;;;4895412;29;20256;-37
2022/09/15 04:57:14;;;;;;;1.50;1.00;;;20.60;48.60;;;;;;4894737;29;20224;-40
2022/09/15 04:59:45;;;;;;;0.70;0.70;;;20.60;48.60;;;;;;4894825;29;20193;-41
2022/09/15 05:02:15;;;;;;;1.80;0.90;;;20.60;48.40;;;;;;4895465;29;20205;-35
2022/09/15 05:04:50;;;;;;;1.45;0.77;;;20.60;48.40;;;;;;4896065;29;20196;-40
2022/09/15 05:07:21;;;;;;;3.17;0.80;;;20.60;48.20;;;;;;4898376;29;20225;-36
2022/09/15 05:09:52;;;;;;;2.22;0.82;;;20.60;48.20;;;;;;4895478;29;20293;-38
2022/09/15 05:12:22;;;;;;;1.20;0.80;;;20.60;48.30;;;;;;4880206;29;20233;-35
2022/09/15 05:14:53;;;;;;;0.93;0.77;;;20.70;48.20;;;;;;4889408;29;20208;-47
2022/09/15 05:17:23;;;;;;;1.00;0.65;;;20.60;48.20;;;;;;4899009;29;20228;-45
2022/09/15 05:19:56;;;;;;;2.10;0.60;;;20.60;48.10;;;;;;4897598;29;20204;-36
2022/09/15 05:22:26;;;;;;;0.88;0.65;;;20.60;48.00;;;;;;4898861;29;20208;-35
2022/09/15 05:24:57;;;;;;;0.75;0.70;;;20.60;48.00;;;;;;4897909;29;20189;-36
2022/09/15 05:27:28;;;;;;;0.93;0.80;;;20.60;47.80;;;;;;4898643;29;20693;-39
2022/09/15 05:29:58;;;;;;;0.63;0.50;;;20.70;47.60;;;;;;4897899;29;20244;-36
2022/09/15 05:32:29;;;;;;;1.35;0.70;;;20.70;47.10;;;;;;4895173;29;20303;-44
2022/09/15 05:35:01;;;;;;;1.63;0.70;;;20.60;46.80;;;;;;4888277;29;20613;-39
2022/09/15 05:37:32;;;;;;;0.82;0.63;;;20.60;46.50;;;;;;4898143;29;20237;-50
2022/09/15 05:40:03;;;;;;;1.15;0.77;;;20.60;46.30;;;;;;4894384;29;20209;-35
2022/09/15 05:42:34;;;;;;;1.48;0.60;;;20.60;46.00;;;;;;4883081;29;20206;-36
2022/09/15 05:45:05;;;;;;;1.08;0.70;;;20.60;45.90;;;;;;4883104;29;20205;-43
2022/09/15 05:47:35;;;;;;;1.58;0.70;;;20.60;45.80;;;;;;4880078;29;20229;-44
2022/09/15 05:50:08;;;;;;;3.10;0.80;;;20.70;45.80;;;;;;4897061;29;20783;-37
2022/09/15 05:52:40;;;;;;;1.58;0.95;;;20.60;45.80;;;;;;4897320;29;20232;-46
2022/09/15 05:55:11;;;;;;;1.27;0.70;;;20.60;45.90;;;;;;4897320;29;20570;-41
2022/09/15 05:57:42;;;;;;;0.70;0.60;;;20.60;45.90;;;;;;4897640;29;20229;-35
2022/09/15 06:00:15;;;;;;;1.30;0.68;;;20.60;46.50;;;;;;4898346;29;20193;-43
2022/09/15 06:02:45;;;;;;;1.63;0.75;;;20.60;45.90;;;;;;4897588;29;20607;-44
2022/09/15 06:05:18;;;;;;;1.02;0.60;;;20.60;46.00;;;;;;4897253;29;20197;-44
2022/09/15 06:07:49;;;;;;;1.13;0.65;;;20.60;46.00;;;;;;4898142;29;20717;-44
2022/09/15 06:10:21;;;;;;;0.60;0.60;;;20.60;46.00;;;;;;4890585;29;20233;-36
2022/09/15 06:12:54;;;;;;;2.47;0.80;;;20.60;46.10;;;;;;4879293;29;20237;-37
2022/09/15 06:15:25;;;;;;;0.80;0.65;;;20.50;46.10;;;;;;4889297;29;20236;-42
2022/09/15 06:17:56;;;;;;;1.10;0.70;;;20.50;46.20;;;;;;4896097;29;20252;-36
2022/09/15 06:20:28;;;;;;;0.73;0.50;;;20.50;46.30;;;;;;4897075;29;20208;-36
2022/09/15 06:22:59;;;;;;;0.40;0.40;;;20.50;46.30;;;;;;4897334;29;20207;-37
2022/09/15 06:25:30;;;;;;;1.30;0.65;;;20.40;46.40;;;;;;4897190;29;20207;-38
2022/09/15 06:28:00;;;;;;;1.05;0.70;;;20.40;46.50;;;;;;4897951;29;20590;-37
2022/09/15 06:30:31;;;;;;;0.73;0.65;;;20.30;46.60;;;;;;4896694;29;20193;-49
2022/09/15 06:33:02;;;;;;;1.35;0.70;;;20.30;46.80;;;;;;4890494;29;20233;-47
2022/09/15 06:35:34;;;;;;;1.58;0.60;;;20.30;46.90;;;;;;4888941;29;20201;-43
2022/09/15 06:38:05;;;;;;;1.33;0.70;;;20.30;47.00;;;;;;4897174;29;20732;-41
2022/09/15 06:40:36;;;;;;;1.83;0.93;;;20.30;47.00;;;;;;4888632;29;20659;-40
2022/09/15 06:43:06;;;;;;;12.77;4.85;;;20.20;47.70;;;;;;4878881;29;20197;-42
2022/09/15 06:45:37;;;;;;;12.80;4.75;;;20.20;48.40;;;;;;4880577;29;20197;-36
2022/09/15 06:48:08;;;;;;;12.40;4.72;;;20.30;48.60;;;;;;4878435;29;20592;-39
2022/09/15 06:50:40;;;;;;;12.35;4.65;;;20.30;48.70;;;;;;4888581;29;20197;-39
2022/09/15 06:53:11;;;;;;;12.75;4.63;;;20.30;48.60;;;;;;4897209;29;20229;-41
2022/09/15 06:55:41;;;;;;;11.48;4.63;;;20.30;48.60;;;;;;4896118;29;20193;-38
2022/09/15 06:58:12;;;;;;;13.93;4.60;;;20.30;48.60;;;;;;4895351;29;20225;-35
2022/09/15 07:00:43;;;;;;;10.98;3.88;;;20.30;48.60;;;;;;4896658;29;20200;-36
2022/09/15 07:03:14;;;;;;;11.50;4.05;;;20.30;48.70;;;;;;4897380;29;20201;-35
2022/09/15 07:05:47;;;;;;;10.35;4.50;;;20.30;48.60;;;;;;4895995;29;20815;-44
2022/09/15 07:08:17;;;;;;;12.48;4.78;;;20.30;48.60;;;;;;4896799;29;20228;-38
2022/09/15 07:10:48;;;;;;;13.30;4.53;;;20.30;48.60;;;;;;4885380;29;20738;-35
2022/09/15 07:13:19;;;;;;;13.07;4.95;;;20.30;48.60;;;;;;4877030;29;20233;-39
2022/09/15 07:15:57;;;;;;;13.02;4.90;;;20.30;48.60;;;;;;4887713;29;20201;-42
2022/09/15 07:18:28;;;;;;;11.20;5.00;;;20.30;48.60;;;;;;4895636;29;20595;-35
2022/09/15 07:21:04;;;;;;;12.05;5.13;;;20.30;48.60;;;;;;4896008;29;20985;-35
2022/09/15 07:23:35;;;;;;;9.93;4.78;;;20.30;48.50;;;;;;4895561;29;20247;-36
2022/09/15 07:26:11;;;;;;;10.45;4.57;;;20.20;48.40;;;;;;4873511;29;20198;-42
2022/09/15 07:28:43;;;;;;;12.80;5.15;;;20.20;48.30;;;;;;4858710;29;20206;-36
2022/09/15 07:31:15;;;;;;;13.98;5.47;;;20.20;48.20;;;;;;4884987;29;20204;-40
2022/09/15 07:33:46;;;;;;;10.65;4.32;;;20.20;48.20;;;;;;4874342;29;20233;-39
2022/09/15 07:36:19;;;;;;;10.77;4.45;;;20.10;48.10;;;;;;4890769;29;20548;-46
2022/09/15 07:38:51;;;;;;;11.82;4.32;;;20.10;48.00;;;;;;4895751;29;20838;-50
2022/09/15 07:41:23;;;;;;;11.02;4.43;;;20.00;47.90;;;;;;4894141;29;20193;-38
2022/09/15 07:43:55;;;;;;;9.57;4.65;;;20.00;47.80;;;;;;4895847;29;20204;-41
2022/09/15 07:46:26;;;;;;;14.20;4.70;;;19.90;47.60;;;;;;4896693;29;20193;-36
2022/09/15 07:48:57;;;;;;;11.60;5.13;;;19.90;47.60;;;;;;4893496;29;20810;-39
2022/09/15 07:51:30;;;;;;;11.25;5.13;;;19.80;47.50;;;;;;4893620;29;20280;-41
2022/09/15 07:54:01;;;;;;;11.52;4.70;;;19.80;47.40;;;;;;4896507;29;20237;-37
2022/09/15 07:56:31;;;;;;;8.88;4.28;;;19.80;47.40;;;;;;4895606;29;20217;-41
2022/09/15 07:59:02;;;;;;;12.52;4.97;;;19.70;47.40;;;;;;4896400;29;20201;-43
2022/09/15 08:01:33;;;;;;;10.18;4.72;;;19.70;47.50;;;;;;4895667;29;20196;-38
2022/09/15 08:04:03;;;;;;;7.68;4.22;;;19.60;47.60;;;;;;4895732;29;20205;-41
2022/09/15 08:06:36;;;;;;;11.98;5.00;;;19.70;47.70;;;;;;4894789;29;20221;-38
2022/09/15 08:09:07;;;;;;;10.27;4.35;;;19.60;47.60;;;;;;4895541;29;20207;-42
2022/09/15 08:11:37;;;;;;;7.90;4.00;;;19.60;47.70;;;;;;4892776;29;20208;-51
2022/09/15 08:14:08;;;;;;;11.50;4.40;;;19.60;47.70;;;;;;4894955;29;20224;-44
2022/09/15 08:16:39;;;;;;;9.43;4.13;;;19.50;47.60;;;;;;4895214;29;20221;-37
2022/09/15 08:19:10;;;;;;;10.45;4.72;;;19.50;47.60;;;;;;4895597;29;20205;-50
2022/09/15 08:21:43;;;;;;;10.05;4.22;;;19.40;47.50;;;;;;4896146;29;20284;-52
2022/09/15 08:24:13;;;;;;;10.95;3.88;;;19.40;47.60;;;;;;4895232;29;20201;-53
2022/09/15 08:26:45;;;;;;;8.27;4.13;;;19.40;48.20;;;;;;4895951;29;20209;-47
2022/09/15 08:29:16;;;;;;;8.57;3.85;;;19.30;47.50;;;;;;4895193;29;20209;-50
2022/09/15 08:31:47;;;;;;;9.20;4.20;;;19.30;47.60;;;;;;4894567;29;20201;-52
2022/09/15 08:34:19;;;;;;;7.82;3.70;;;19.30;47.60;;;;;;4877395;29;20233;-44
2022/09/15 08:36:51;;;;;;;9.48;3.65;;;19.20;47.70;;;;;;4889018;29;20213;-38
2022/09/15 08:39:22;;;;;;;8.90;3.95;;;19.30;47.80;;;;;;4894254;29;20664;-41
2022/09/15 08:41:55;;;;;;;7.65;3.50;;;19.20;47.70;;;;;;4893545;29;20200;-44
2022/09/15 08:44:38;;;;;;;8.77;3.97;;;19.20;47.80;;;;;;4897615;29;20208;-39
2022/09/15 08:47:14;;;;;;;8.88;4.03;;;19.20;47.80;;;;;;4897469;29;20212;-45
2022/09/15 08:49:54;;;;;;;8.38;4.03;;;19.20;47.80;;;;;;4897156;29;20208;-47
2022/09/15 08:52:36;;;;;;;5.65;3.65;;;19.10;47.80;;;;;;4882405;29;20204;-43
2022/09/15 08:55:13;;;;;;;8.85;4.00;;;19.00;47.80;;;;;;4878342;29;20253;-39
2022/09/15 08:57:43;;;;;;;5.88;3.72;;;19.10;48.40;;;;;;4878338;29;20225;-38
2022/09/15 09:00:18;;;;;;;5.90;3.15;;;19.00;47.80;;;;;;4878384;29;20287;-42
2022/09/15 09:03:22;;;;;;;5.85;2.92;;;19.00;47.80;;;;;;4878114;29;20565;-45
2022/09/15 09:06:00;;;;;;;8.20;3.70;;;18.90;47.80;;;;;;4877147;29;20577;-40
2022/09/15 09:08:59;;;;;;;6.97;3.38;;;18.90;47.90;;;;;;4878154;29;20221;-44
2022/09/15 09:11:42;;;;;;;5.25;3.08;;;18.90;47.90;;;;;;4877761;29;20237;-36
2022/09/15 09:14:24;;;;;;;6.53;3.13;;;18.90;47.90;;;;;;4878010;29;20237;-38
2022/09/15 09:17:12;;;;;;;7.75;3.30;;;18.90;48.00;;;;;;4877848;29;20221;-41
2022/09/15 09:20:17;;;;;;;7.45;3.58;;;18.80;47.90;;;;;;4877519;29;20225;-38
2022/09/15 09:22:51;;;;;;;5.20;2.95;;;18.80;47.90;;;;;;4877875;29;20288;-43
2022/09/15 09:25:25;;;;;;;6.90;3.15;;;18.70;47.90;;;;;;4878001;29;20213;-35
2022/09/15 09:27:56;;;;;;;5.85;2.80;;;18.70;47.90;;;;;;4877606;29;20251;-41
2022/09/15 09:30:34;;;;;;;6.11;2.94;;;18.70;47.90;;;;;;4871834;29;3415605;-39
2022/09/15 09:33:17;;;;;;;6.80;2.97;;;18.60;48.00;;;;;;4878452;29;20740;-40
2022/09/15 09:35:50;;;;;;;5.45;3.00;;;18.60;48.00;;;;;;4878076;29;20212;-35
2022/09/15 09:38:23;;;;;;;4.50;2.50;;;18.60;48.10;;;;;;4878492;29;20717;-36
2022/09/15 09:40:55;;;;;;;7.13;3.15;;;18.60;48.10;;;;;;4878782;29;20662;-39
2022/09/15 09:43:26;;;;;;;6.30;2.67;;;18.50;48.00;;;;;;4878967;29;20212;-46
2022/09/15 09:45:58;;;;;;;7.55;2.67;;;18.50;48.00;;;;;;4879511;29;20580;-35
2022/09/15 09:48:30;;;;;;;4.43;2.50;;;18.50;48.00;;;;;;4878534;29;20217;-34
2022/09/15 09:51:00;;;;;;;6.15;2.75;;;18.50;48.10;;;;;;4874728;29;20585;-35
2022/09/15 09:53:32;;;;;;;6.63;2.60;;;18.40;48.20;;;;;;4870862;29;20236;-35
2022/09/15 09:56:26;;;;;;;5.53;2.92;;;18.40;48.30;;;;;;4879705;29;20206;-34
2022/09/15 09:58:57;;;;;;;6.45;3.03;;;18.30;48.40;;;;;;4878871;29;20592;-34
2022/09/15 10:01:28;;;;;;;3.63;2.28;;;18.30;48.40;;;;;;4878556;29;20659;-34
2022/09/15 10:04:18;;;;;;;4.05;2.40;;;18.20;48.50;;;;;;4878309;29;20209;-38
2022/09/15 10:06:49;;;;;;;6.32;3.08;;;18.10;48.60;;;;;;4859542;29;20319;-35
2022/09/15 10:09:21;;;;;;;5.57;2.53;;;18.10;48.60;;;;;;4859747;29;20206;-36
2022/09/15 10:11:56;;;;;;;4.47;2.47;;;18.10;48.70;;;;;;4877893;29;20205;-34
2022/09/15 10:14:30;;;;;;;4.15;2.30;;;18.00;48.70;;;;;;4878172;29;20237;-36
2022/09/15 10:17:03;;;;;;;3.67;2.22;;;18.00;48.80;;;;;;4878087;29;20226;-35
2022/09/15 10:19:36;;;;;;;4.85;2.72;;;18.00;48.80;;;;;;4877829;29;20601;-43
2022/09/15 10:22:07;;;;;;;4.30;2.60;;;18.00;48.80;;;;;;4875176;29;20212;-39
2022/09/15 10:24:40;;;;;;;4.78;2.60;;;17.90;48.80;;;;;;4869456;29;20224;-34
2022/09/15 10:27:21;;;;;;;5.65;2.25;;;17.90;48.90;;;;;;4877757;29;20221;-36
2022/09/15 10:29:51;;;;;;;5.38;2.50;;;17.80;48.90;;;;;;4877929;29;20572;-37
2022/09/15 10:32:30;;;;;;;4.88;2.42;;;17.80;49.00;;;;;;4875096;29;20213;-39
2022/09/15 10:35:12;;;;;;;5.03;2.30;;;17.80;49.10;;;;;;4878153;29;20768;-41
2022/09/15 10:38:03;;;;;;;4.95;2.35;;;17.70;49.10;;;;;;4886408;29;20213;-37
2022/09/15 10:40:45;;;;;;;3.85;2.00;;;17.70;49.20;;;;;;4866886;29;20210;-45
2022/09/15 10:43:29;;;;;;;4.22;2.30;;;17.70;49.20;;;;;;4885375;29;20209;-41
2022/09/15 10:46:06;;;;;;;3.42;2.50;;;17.60;49.20;;;;;;4877442;29;20682;-39
2022/09/15 10:48:49;;;;;;;7.57;3.08;;;17.60;49.50;;;;;;4891091;29;20657;-39
2022/09/15 10:51:32;;;;;;;6.47;3.03;;;17.60;49.50;;;;;;4887723;29;20202;-48
2022/09/15 10:54:28;;;;;;;6.35;3.65;;;17.60;49.50;;;;;;4893999;29;20235;-38
2022/09/15 10:57:06;;;;;;;7.70;3.50;;;17.60;49.50;;;;;;4896578;29;20228;-39
2022/09/15 10:59:46;;;;;;;4.78;2.67;;;17.50;49.50;;;;;;4876423;29;20210;-39
2022/09/15 11:03:08;;;;;;;4.40;2.83;;;17.50;49.60;;;;;;4870527;29;20201;-35
2022/09/15 11:05:55;;;;;;;7.65;3.20;;;17.50;49.60;;;;;;4858085;29;20217;-35
2022/09/15 11:08:47;;;;;;;6.38;3.03;;;17.40;49.60;;;;;;4880836;29;20228;-43
2022/09/15 11:11:24;;;;;;;6.63;3.17;;;17.40;49.70;;;;;;4863616;29;20209;-35
2022/09/15 11:14:06;;;;;;;7.28;3.42;;;17.40;49.70;;;;;;4887592;29;20713;-43
2022/09/15 11:16:52;;;;;;;8.50;3.60;;;17.30;49.60;;;;;;4895928;29;20268;-38
2022/09/15 11:19:54;;;;;;;8.55;3.80;;;17.30;49.70;;;;;;4895803;29;20197;-35
2022/09/15 11:22:29;;;;;;;10.55;3.50;;;17.30;49.70;;;;;;4895550;29;20200;-35
2022/09/15 11:25:03;;;;;;;6.80;2.88;;;17.30;49.70;;;;;;4878569;29;20225;-36
2022/09/15 11:27:37;;;;;;;10.27;3.20;;;17.20;49.70;;;;;;4880801;29;20611;-46
2022/09/15 11:30:15;;;;;;;8.07;3.47;;;17.20;49.70;;;;;;4895942;29;20204;-44
2022/09/15 11:32:56;;;;;;;7.60;3.53;;;17.20;49.70;;;;;;4895337;29;20291;-39
2022/09/15 11:35:42;;;;;;;9.68;3.85;;;17.10;50.30;;;;;;4894631;29;20400;-36
2022/09/15 11:38:37;;;;;;;7.68;3.70;;;17.10;49.80;;;;;;4895272;29;20228;-37
2022/09/15 11:41:21;;;;;;;9.95;3.88;;;17.10;49.80;;;;;;4881587;29;20218;-35
2022/09/15 11:44:08;;;;;;;7.00;3.30;;;17.00;49.80;;;;;;4889032;29;20223;-38
2022/09/15 11:46:58;;;;;;;7.75;3.65;;;17.00;49.80;;;;;;4895012;29;20225;-46
2022/09/15 11:49:33;;;;;;;5.93;3.50;;;17.00;49.80;;;;;;4895099;29;20256;-46
2022/09/15 11:52:12;;;;;;;7.28;3.90;;;17.00;49.80;;;;;;4880345;29;20209;-42
2022/09/15 11:54:47;;;;;;;6.18;3.42;;;16.90;49.80;;;;;;4894690;29;20235;-35
2022/09/15 11:57:21;;;;;;;7.32;3.53;;;16.90;49.80;;;;;;4895145;29;20223;-35
2022/09/15 11:59:56;;;;;;;7.40;3.65;;;16.90;49.80;;;;;;4894979;29;20251;-39
2022/09/15 12:02:31;;;;;;;7.00;3.45;;;16.90;49.90;;;;;;4891744;29;20192;-41
2022/09/15 12:05:12;;;;;;;6.85;3.08;;;16.80;49.90;;;;;;4894711;29;20225;-43
2022/09/15 12:07:47;;;;;;;7.18;3.20;;;16.80;49.90;;;;;;4894970;29;20225;-39
2022/09/15 12:10:24;;;;;;;6.03;3.22;;;16.80;50.00;;;;;;4888613;29;20205;-35
2022/09/15 12:12:55;;;;;;;9.77;3.78;;;16.70;50.00;;;;;;4879552;29;20653;-36
2022/09/15 12:15:28;;;;;;;7.43;3.33;;;16.70;50.00;;;;;;4894631;29;20764;-46
2022/09/15 12:18:10;;;;;;;8.35;3.13;;;16.70;50.00;;;;;;4895366;29;20285;-38
2022/09/15 12:20:46;;;;;;;5.90;3.35;;;16.70;50.10;;;;;;4895749;29;20543;-40
2022/09/15 12:23:25;;;;;;;7.60;3.70;;;16.60;50.00;;;;;;4894379;29;20204;-39
2022/09/15 12:26:14;;;;;;;6.30;3.50;;;16.60;50.10;;;;;;4894689;29;20205;-36
2022/09/15 12:28:55;;;;;;;5.63;3.10;;;16.60;50.10;;;;;;4894738;29;20204;-35
2022/09/15 12:31:37;;;;;;;7.10;3.22;;;16.60;50.10;;;;;;4894917;29;20684;-39
2022/09/15 12:34:23;;;;;;;7.68;3.30;;;16.60;50.10;;;;;;4877105;29;20304;-39
2022/09/15 12:36:57;;;;;;;6.28;2.85;;;16.50;50.10;;;;;;4875483;29;20225;-36
2022/09/15 12:39:31;;;;;;;6.70;3.13;;;16.50;50.10;;;;;;4875695;29;20291;-35
2022/09/15 12:42:20;;;;;;;5.38;3.38;;;16.50;50.20;;;;;;4857609;29;20226;-35
2022/09/15 12:44:55;;;;;;;6.90;3.42;;;16.40;50.20;;;;;;4857313;29;20206;-36
2022/09/15 12:47:33;;;;;;;5.05;3.15;;;16.40;50.20;;;;;;4860512;29;20462;-35
2022/09/15 12:50:24;;;;;;;5.97;3.13;;;16.40;50.20;;;;;;4875715;29;20268;-49
2022/09/15 12:53:00;;;;;;;7.53;3.47;;;16.40;50.30;;;;;;4868761;29;20604;-35
2022/09/15 12:55:34;;;;;;;6.50;3.50;;;16.40;50.20;;;;;;4875466;29;20237;-38
2022/09/15 12:58:11;;;;;;;5.95;3.67;;;16.30;50.20;;;;;;4875484;29;20248;-46
2022/09/15 13:00:43;;;;;;;5.50;3.40;;;16.30;50.20;;;;;;4875784;29;20201;-37
2022/09/15 13:03:29;;;;;;;6.13;3.38;;;16.30;50.30;;;;;;4875316;29;20209;-35
2022/09/15 13:06:21;;;;;;;5.70;3.20;;;16.20;50.20;;;;;;4875418;29;20268;-36
2022/09/15 13:09:25;;;;;;;7.40;3.17;;;16.20;50.30;;;;;;4875703;29;20206;-35
2022/09/15 13:11:58;;;;;;;7.45;3.60;;;16.20;50.30;;;;;;4874944;29;20197;-38
2022/09/15 13:14:34;;;;;;;5.68;3.40;;;16.20;50.30;;;;;;4875723;29;20229;-35
2022/09/15 13:17:09;;;;;;;7.15;3.08;;;16.10;50.30;;;;;;4875650;29;20232;-40
2022/09/15 13:19:45;;;;;;;7.65;3.55;;;16.10;50.40;;;;;;4856501;29;20201;-38
2022/09/15 13:22:26;;;;;;;7.82;3.83;;;16.10;51.00;;;;;;4856918;29;20262;-35
2022/09/15 13:25:03;;;;;;;6.30;3.30;;;16.10;50.40;;;;;;4857165;29;20198;-42